Time;durP1;ratioP1;P1;durP2;ratioP2;P2;SDS_P1;SDS_P2;PMS_P1;PMS_P2;Temp;Humidity;BMP_temperature;BMP_pressure;BME280_temperature;BME280_humidity;BME280_pressure;Samples;Min_cycle;Max_cycle;Signal;HPM_P1;HPM_P2
2022/10/25 00:00:11;;;;;;;;;;;;;;;11.40;100.00;99080.25;1695768;83;20368;-66
2022/10/25 00:02:39;;;;;;;;;;;;;;;11.36;100.00;99080.04;1693492;83;20164;-67
2022/10/25 00:05:07;;;;;;;;;;;;;;;11.33;100.00;99078.92;1693950;83;21602;-67
2022/10/25 00:07:33;;;;;;;;;;;;;;;11.33;100.00;99080.70;1693311;83;20186;-66
2022/10/25 00:10:00;;;;;;;;;;;;;;;11.26;100.00;99083.30;1695815;83;20438;-67
2022/10/25 00:12:26;;;;;;;;;;;;;;;11.24;100.00;99076.88;1693357;84;20105;-66
2022/10/25 00:14:53;;;;;;;;;;;;;;;11.23;100.00;99077.81;1687863;83;20196;-66
2022/10/25 00:17:19;;;;;;;;;;;;;;;11.20;100.00;99077.98;1689121;83;21665;-67
2022/10/25 00:19:45;;;;;;;;;;;;;;;11.19;100.00;99076.30;1679660;84;20129;-66
2022/10/25 00:22:12;;;;;;;;;;;;;;;11.28;100.00;99078.36;1652657;85;20645;-67
2022/10/25 00:24:38;;;;;;;;;;;;;;;11.30;100.00;99073.05;1684945;84;20169;-67
2022/10/25 00:27:05;;;;;;;;;;;;;;;11.30;100.00;99071.27;1682222;84;20086;-67
2022/10/25 00:29:31;;;;;;;;;;;;;;;11.28;100.00;99075.74;1684275;84;21542;-67
2022/10/25 00:31:58;;;;;;;;;;;;;;;11.16;100.00;99075.19;1684384;84;20487;-66
2022/10/25 00:34:24;;;;;;;;;;;;;;;11.10;100.00;99087.31;1683496;84;20163;-66
2022/10/25 00:36:50;;;;;;;;;;;;;;;11.07;100.00;99082.28;1690598;83;20344;-66
2022/10/25 00:39:17;;;;;;;;;;;;;;;11.03;100.00;99079.45;1684961;84;20634;-67
2022/10/25 00:41:43;;;;;;;;;;;;;;;11.05;100.00;99079.74;1684808;84;21126;-66
2022/10/25 00:44:36;;;;;;;;;;;;;;;11.02;100.00;99082.53;1678352;84;20176;-67
2022/10/25 00:47:21;;;;;;;;;;;;;;;10.99;100.00;99090.56;1659198;85;20179;-66
2022/10/25 00:49:54;;;;;;;;;;;;;;;11.01;100.00;99087.84;1681187;84;20130;-66
2022/10/25 00:52:21;;;;;;;;;;;;;;;10.95;100.00;99082.07;1680174;84;20190;-67
2022/10/25 00:54:49;;;;;;;;;;;;;;;10.94;100.00;99080.38;1685631;84;22420;-66
2022/10/25 00:57:21;;;;;;;;;;;;;;;10.95;100.00;99078.59;1681485;84;20090;-66
2022/10/25 00:59:48;;;;;;;;;;;;;;;10.93;100.00;99077.39;1679649;83;20423;-68
2022/10/25 01:02:15;;;;;;;;;;;;;;;10.93;100.00;99073.48;1686581;84;20139;-66
2022/10/25 01:04:42;;;;;;;;;;;;;;;10.97;100.00;99078.87;1684994;84;20178;-67
2022/10/25 01:07:09;;;;;;;;;;;;;;;10.99;100.00;99077.50;1683095;84;22125;-67
2022/10/25 01:09:37;;;;;;;;;;;;;;;11.00;100.00;99075.72;1687400;84;20522;-67
2022/10/25 01:12:04;;;;;;;;;;;;;;;10.96;100.00;99076.38;1672067;84;20427;-67
2022/10/25 01:14:33;;;;;;;;;;;;;;;11.01;100.00;99077.39;1675916;84;20187;-67
2022/10/25 01:17:12;;;;;;;;;;;;;;;11.05;100.00;99081.52;1674268;84;20448;-67
2022/10/25 01:20:00;;;;;;;;;;;;;;;11.09;100.00;99072.55;1678576;84;21513;-66
2022/10/25 01:22:42;;;;;;;;;;;;;;;11.07;100.00;99078.36;1674562;84;20141;-66
2022/10/25 01:25:28;;;;;;;;;;;;;;;11.03;100.00;99080.76;1678763;84;20123;-67
2022/10/25 01:28:06;;;;;;;;;;;;;;;11.01;100.00;99076.08;1678029;84;20106;-67
2022/10/25 01:31:01;;;;;;;;;;;;;;;10.98;100.00;99074.05;1694782;83;20230;-66
2022/10/25 01:33:36;;;;;;;;;;;;;;;10.94;100.00;99080.38;1668595;86;21163;-66
2022/10/25 01:36:15;;;;;;;;;;;;;;;10.89;100.00;99073.27;1655789;85;20222;-66
2022/10/25 01:38:54;;;;;;;;;;;;;;;10.85;100.00;99078.30;1653497;85;20197;-66
2022/10/25 01:41:48;;;;;;;;;;;;;;;10.83;100.00;99078.86;1658109;85;20090;-66
2022/10/25 01:44:32;;;;;;;;;;;;;;;10.80;100.00;99080.34;1653965;85;20223;-66
2022/10/25 01:47:04;;;;;;;;;;;;;;;10.75;100.00;99088.47;1653316;85;21071;-67
2022/10/25 01:49:53;;;;;;;;;;;;;;;10.72;100.00;99086.47;1651058;85;20107;-67
2022/10/25 01:52:21;;;;;;;;;;;;;;;10.69;100.00;99087.95;1665553;86;20536;-66
2022/10/25 01:54:49;;;;;;;;;;;;;;;10.68;100.00;99088.90;1667494;85;20203;-66
2022/10/25 01:57:30;;;;;;;;;;;;;;;10.69;100.00;99087.95;1656477;85;20159;-66
2022/10/25 02:00:12;;;;;;;;;;;;;;;10.65;100.00;99081.25;1659843;85;22017;-66
2022/10/25 02:02:45;;;;;;;;;;;;;;;10.64;100.00;99089.98;1654351;85;20252;-66
2022/10/25 02:05:27;;;;;;;;;;;;;;;10.57;100.00;99078.23;1653621;85;20462;-66
2022/10/25 02:08:00;;;;;;;;;;;;;;;10.52;100.00;99079.32;1651628;85;20215;-65
2022/10/25 02:10:39;;;;;;;;;;;;;;;10.49;100.00;99076.89;1694498;83;20210;-66
2022/10/25 02:13:27;;;;;;;;;;;;;;;10.45;100.00;99071.48;1693576;83;22175;-66
2022/10/25 02:15:57;;;;;;;;;;;;;;;10.48;100.00;99075.69;1695577;83;20811;-66
2022/10/25 02:18:26;;;;;;;;;;;;;;;10.45;100.00;99075.40;1695112;84;20203;-66
2022/10/25 02:20:54;;;;;;;;;;;;;;;10.39;100.00;99073.14;1695956;83;20126;-66
2022/10/25 02:23:22;;;;;;;;;;;;;;;10.40;100.00;99068.76;1695738;84;20178;-66
2022/10/25 02:25:49;;;;;;;;;;;;;;;10.42;100.00;99064.27;1697900;83;21682;-66
2022/10/25 02:28:16;;;;;;;;;;;;;;;10.41;100.00;99066.05;1695345;83;21027;-66
2022/10/25 02:30:43;;;;;;;;;;;;;;;10.40;100.00;99068.76;1680935;84;20179;-66
2022/10/25 02:33:11;;;;;;;;;;;;;;;10.37;100.00;99074.98;1695827;83;20130;-66
2022/10/25 02:35:37;;;;;;;;;;;;;;;10.36;100.00;99068.07;1694743;83;20246;-66
2022/10/25 02:38:04;;;;;;;;;;;;;;;10.34;100.00;99072.56;1695174;83;21083;-67
2022/10/25 02:40:31;;;;;;;;;;;;;;;10.32;100.00;99074.41;1694090;83;20446;-66
2022/10/25 02:42:57;;;;;;;;;;;;;;;10.30;100.00;99073.64;1695379;84;20162;-66
2022/10/25 02:45:23;;;;;;;;;;;;;;;10.24;100.00;99076.57;1695648;83;20145;-66
2022/10/25 02:47:50;;;;;;;;;;;;;;;10.19;100.00;99069.45;1693584;84;20131;-67
2022/10/25 02:50:17;;;;;;;;;;;;;;;10.19;100.00;99072.06;1695422;83;22005;-67
2022/10/25 02:52:43;;;;;;;;;;;;;;;10.19;100.00;99071.59;1695923;83;20144;-64
2022/10/25 02:55:10;;;;;;;;;;;;;;;10.18;100.00;99070.39;1684572;84;20444;-65
2022/10/25 02:57:37;;;;;;;;;;;;;;;10.20;100.00;99077.68;1677497;84;20166;-64
2022/10/25 03:00:05;;;;;;;;;;;;;;;10.19;100.00;99073.38;1691154;83;20133;-64
2022/10/25 03:02:31;;;;;;;;;;;;;;;10.20;100.00;99073.77;1676272;84;21228;-64
2022/10/25 03:04:57;;;;;;;;;;;;;;;10.19;100.00;99073.38;1645444;86;20170;-64
2022/10/25 03:07:24;;;;;;;;;;;;;;;10.21;100.00;99079.35;1691019;83;20497;-64
2022/10/25 03:09:50;;;;;;;;;;;;;;;10.24;100.00;99076.57;1692301;83;20117;-64
2022/10/25 03:12:17;;;;;;;;;;;;;;;10.25;100.00;99075.62;1681025;84;20127;-64
2022/10/25 03:14:43;;;;;;;;;;;;;;;10.23;100.00;99072.29;1659588;85;22516;-65
2022/10/25 03:17:10;;;;;;;;;;;;;;;10.22;100.00;99071.89;1655709;85;20135;-64
2022/10/25 03:19:36;;;;;;;;;;;;;;;10.22;100.00;99062.77;1650893;85;20194;-66
2022/10/25 03:22:03;;;;;;;;;;;;;;;10.19;100.00;99065.08;1649488;85;20461;-67
2022/10/25 03:24:29;;;;;;;;;;;;;;;10.18;100.00;99066.48;1690605;84;21063;-67
2022/10/25 03:26:56;;;;;;;;;;;;;;;10.15;100.00;99061.44;1687478;84;21905;-66
2022/10/25 03:29:22;;;;;;;;;;;;;;;10.12;100.00;99067.67;1686709;84;20079;-66
2022/10/25 03:31:48;;;;;;;;;;;;;;;10.12;100.00;99068.13;1687265;84;20154;-66
2022/10/25 03:34:15;;;;;;;;;;;;;;;10.12;100.00;99068.13;1688871;83;20218;-67
2022/10/25 03:36:41;;;;;;;;;;;;;;;10.14;100.00;99066.26;1688678;83;20120;-66
2022/10/25 03:39:09;;;;;;;;;;;;;;;10.14;100.00;99063.21;1687578;83;21833;-67
2022/10/25 03:41:35;;;;;;;;;;;;;;;10.17;100.00;99064.81;1676497;85;20186;-67
2022/10/25 03:44:02;;;;;;;;;;;;;;;10.14;100.00;99064.95;1688815;83;20186;-67
2022/10/25 03:46:28;;;;;;;;;;;;;;;10.12;100.00;99064.22;1687567;85;20180;-67
2022/10/25 03:48:54;;;;;;;;;;;;;;;10.09;100.00;99073.89;1689828;85;20164;-67
2022/10/25 03:51:21;;;;;;;;;;;;;;;10.04;100.00;99070.70;1685246;83;22359;-67
2022/10/25 03:53:47;;;;;;;;;;;;;;;10.08;100.00;99067.00;1676068;84;20734;-67
2022/10/25 03:56:14;;;;;;;;;;;;;;;10.00;100.00;99073.11;1690706;83;20186;-66
2022/10/25 03:58:40;;;;;;;;;;;;;;;9.97;100.00;99071.98;1686528;84;20092;-67
2022/10/25 04:01:10;;;;;;;;;;;;;;;9.95;100.00;99071.21;1687061;84;20160;-67
2022/10/25 04:03:36;;;;;;;;;;;;;;;9.91;100.00;99067.07;1684335;84;21254;-67
2022/10/25 04:06:03;;;;;;;;;;;;;;;9.89;100.00;99061.13;1687495;84;20159;-67
2022/10/25 04:08:30;;;;;;;;;;;;;;;9.97;100.00;99060.24;1681211;84;20442;-67
2022/10/25 04:10:56;;;;;;;;;;;;;;;9.98;100.00;99061.91;1680629;84;20197;-67
2022/10/25 04:13:23;;;;;;;;;;;;;;;9.94;100.00;99058.24;1689565;85;20188;-67
2022/10/25 04:15:49;;;;;;;;;;;;;;;9.85;100.00;99059.59;1679014;84;21388;-67
2022/10/25 04:18:16;;;;;;;;;;;;;;;9.81;100.00;99062.00;1689701;83;20149;-67
2022/10/25 04:20:42;;;;;;;;;;;;;;;9.85;100.00;99062.20;1693835;84;20099;-67
2022/10/25 04:23:09;;;;;;;;;;;;;;;9.89;100.00;99065.47;1684177;84;21116;-67
2022/10/25 04:25:35;;;;;;;;;;;;;;;9.83;100.00;99055.78;1690413;83;20144;-67
2022/10/25 04:28:01;;;;;;;;;;;;;;;9.86;100.00;99061.30;1690479;83;21135;-67
2022/10/25 04:30:27;;;;;;;;;;;;;;;9.87;100.00;99065.57;1689964;83;20504;-67
2022/10/25 04:32:56;;;;;;;;;;;;;;;9.89;100.00;99066.34;1690152;83;20176;-67
2022/10/25 04:35:22;;;;;;;;;;;;;;;9.89;100.00;99062.42;1689629;83;20451;-67
2022/10/25 04:37:50;;;;;;;;;;;;;;;9.93;100.00;99063.92;1662168;83;20174;-67
2022/10/25 04:40:17;;;;;;;;;;;;;;;9.94;100.00;99060.41;1692003;83;21206;-67
2022/10/25 04:42:43;;;;;;;;;;;;;;;9.92;100.00;99072.69;1692762;83;21023;-66
2022/10/25 04:45:10;;;;;;;;;;;;;;;9.91;100.00;99072.28;1691959;83;20123;-67
2022/10/25 04:47:36;;;;;;;;;;;;;;;9.86;100.00;99069.11;1690350;83;20156;-67
2022/10/25 04:50:03;;;;;;;;;;;;;;;9.84;100.00;99070.95;1662687;85;20097;-67
2022/10/25 04:52:31;;;;;;;;;;;;;;;9.87;100.00;99073.39;1692351;83;21588;-67
2022/10/25 04:54:57;;;;;;;;;;;;;;;9.88;100.00;99063.80;1688710;83;20122;-66
2022/10/25 04:57:25;;;;;;;;;;;;;;;9.86;100.00;99069.95;1688635;83;20511;-66
2022/10/25 04:59:51;;;;;;;;;;;;;;;9.93;100.00;99070.45;1690046;83;20135;-66
2022/10/25 05:02:18;;;;;;;;;;;;;;;9.87;100.00;99070.79;1645508;85;20206;-66
2022/10/25 05:04:44;;;;;;;;;;;;;;;9.85;100.00;99075.23;1680197;84;22420;-65
2022/10/25 05:07:10;;;;;;;;;;;;;;;9.85;100.00;99075.23;1689238;83;20177;-65
2022/10/25 05:09:37;;;;;;;;;;;;;;;9.85;100.00;99075.23;1677653;84;20495;-66
2022/10/25 05:12:04;;;;;;;;;;;;;;;9.91;100.00;99076.20;1690104;83;20198;-66
2022/10/25 05:14:31;;;;;;;;;;;;;;;9.91;100.00;99076.66;1687135;83;20082;-65
2022/10/25 05:16:57;;;;;;;;;;;;;;;9.90;100.00;99078.44;1680032;84;21114;-66
2022/10/25 05:19:24;;;;;;;;;;;;;;;9.90;100.00;99077.61;1690526;83;20127;-66
2022/10/25 05:21:50;;;;;;;;;;;;;;;9.92;100.00;99075.77;1672983;84;20449;-65
2022/10/25 05:24:18;;;;;;;;;;;;;;;9.95;100.00;99079.50;1682256;84;20173;-67
2022/10/25 05:26:45;;;;;;;;;;;;;;;9.95;100.00;99076.89;1690666;83;20095;-66
2022/10/25 05:29:12;;;;;;;;;;;;;;;9.95;100.00;99081.64;1679123;84;21177;-66
2022/10/25 05:31:40;;;;;;;;;;;;;;;9.95;100.00;99089.47;1689932;83;20187;-66
2022/10/25 05:34:06;;;;;;;;;;;;;;;9.98;100.00;99081.47;1676150;84;21120;-66
2022/10/25 05:36:33;;;;;;;;;;;;;;;9.98;100.00;99086.69;1675316;84;20093;-66
2022/10/25 05:39:00;;;;;;;;;;;;;;;9.95;100.00;99089.47;1687861;84;20250;-66
2022/10/25 05:41:27;;;;;;;;;;;;;;;9.98;100.00;99086.69;1672024;84;21303;-66
2022/10/25 05:43:53;;;;;;;;;;;;;;;10.00;100.00;99091.36;1652385;85;20190;-67
2022/10/25 05:46:21;;;;;;;;;;;;;;;10.01;100.00;99096.95;1688681;83;20080;-66
2022/10/25 05:48:49;;;;;;;;;;;;;;;10.01;100.00;99096.95;1689868;84;20107;-66
2022/10/25 05:51:25;;;;;;;;;;;;;;;10.02;100.00;99098.62;1690417;85;20107;-67
2022/10/25 05:53:54;;;;;;;;;;;;;;;10.07;100.00;99107.51;1684863;85;21094;-66
2022/10/25 05:56:22;;;;;;;;;;;;;;;10.05;100.00;99100.22;1688874;83;20728;-66
2022/10/25 05:58:49;;;;;;;;;;;;;;;10.06;100.00;99107.97;1688162;83;20166;-66
2022/10/25 06:01:17;;;;;;;;;;;;;;;10.08;100.00;99107.44;1659822;85;20166;-66
2022/10/25 06:03:50;;;;;;;;;;;;;;;10.09;100.00;99116.94;1688461;83;20218;-66
2022/10/25 06:06:17;;;;;;;;;;;;;;;10.11;100.00;99115.99;1689095;83;21191;-66
2022/10/25 06:08:44;;;;;;;;;;;;;;;10.18;100.00;99119.49;1689106;83;20211;-66
2022/10/25 06:11:13;;;;;;;;;;;;;;;10.32;100.00;99126.59;1688258;83;20093;-66
2022/10/25 06:13:40;;;;;;;;;;;;;;;10.47;100.00;99124.45;1692012;83;20124;-66
2022/10/25 06:16:09;;;;;;;;;;;;;;;10.68;100.00;99122.38;1690695;83;20148;-65
2022/10/25 06:18:37;;;;;;;;;;;;;;;10.90;100.00;99123.28;1689376;83;21134;-65
2022/10/25 06:21:06;;;;;;;;;;;;;;;11.13;100.00;99127.62;1690297;83;20147;-66
2022/10/25 06:23:36;;;;;;;;;;;;;;;11.42;100.00;99133.25;1691004;83;20127;-66
2022/10/25 06:26:05;;;;;;;;;;;;;;;11.73;100.00;99128.77;1688837;85;20101;-65
2022/10/25 06:28:32;;;;;;;;;;;;;;;11.95;100.00;99137.95;1689449;83;20124;-65
2022/10/25 06:31:08;;;;;;;;;;;;;;;12.13;100.00;99139.44;1689654;83;21137;-65
2022/10/25 06:33:34;;;;;;;;;;;;;;;12.29;100.00;99132.30;1690299;83;20178;-65
2022/10/25 06:36:01;;;;;;;;;;;;;;;12.41;100.00;99135.06;1690994;83;20120;-66
2022/10/25 06:38:29;;;;;;;;;;;;;;;12.59;100.00;99131.25;1680482;84;20129;-66
2022/10/25 06:41:00;;;;;;;;;;;;;;;12.79;100.00;99135.18;1686523;84;20688;-66
2022/10/25 06:43:26;;;;;;;;;;;;;;;12.96;100.00;99144.55;1690243;85;21726;-66
2022/10/25 06:45:53;;;;;;;;;;;;;;;13.04;100.00;99142.26;1675065;84;20117;-66
2022/10/25 06:48:20;;;;;;;;;;;;;;;13.03;100.00;99144.52;1683187;84;20169;-66
2022/10/25 06:50:46;;;;;;;;;;;;;;;13.07;100.00;99147.29;1657873;85;20172;-66
2022/10/25 06:53:13;;;;;;;;;;;;;;;13.07;100.00;99144.67;1683116;84;20079;-66
2022/10/25 06:55:41;;;;;;;;;;;;;;;13.02;100.00;99142.83;1679707;84;20762;-66
2022/10/25 06:58:07;;;;;;;;;;;;;;;13.07;100.00;99145.98;1679833;84;20458;-66
2022/10/25 07:00:34;;;;;;;;;;;;;;;13.03;100.00;99153.69;1690367;84;20156;-66
2022/10/25 07:03:00;;;;;;;;;;;;;;;13.03;100.00;99151.07;1684019;84;20095;-66
2022/10/25 07:05:26;;;;;;;;;;;;;;;13.02;100.00;99148.06;1685426;84;20222;-65
2022/10/25 07:07:53;;;;;;;;;;;;;;;13.02;100.00;99150.69;1683304;84;21086;-66
2022/10/25 07:10:19;;;;;;;;;;;;;;;13.02;100.00;99146.75;1686707;84;20164;-66
2022/10/25 07:12:46;;;;;;;;;;;;;;;13.03;100.00;99148.93;1680400;84;20474;-66
2022/10/25 07:15:12;;;;;;;;;;;;;;;13.09;100.00;99144.11;1681814;84;20467;-66
2022/10/25 07:17:39;;;;;;;;;;;;;;;13.18;100.00;99147.41;1654753;85;20134;-65
2022/10/25 07:20:06;;;;;;;;;;;;;;;13.25;100.00;99147.86;1665843;85;22195;-65
2022/10/25 07:22:32;;;;;;;;;;;;;;;13.26;100.00;99143.48;1649734;86;20100;-65
2022/10/25 07:24:59;;;;;;;;;;;;;;;13.26;100.00;99146.11;1691664;83;20235;-65
2022/10/25 07:27:25;;;;;;;;;;;;;;;13.31;100.00;99146.64;1690066;84;20509;-66
2022/10/25 07:29:52;;;;;;;;;;;;;;;13.39;100.00;99147.80;1687990;83;20142;-66
2022/10/25 07:32:18;;;;;;;;;;;;;;;13.46;100.00;99146.89;1685419;84;21558;-66
2022/10/25 07:34:44;;;;;;;;;;;;;;;13.47;100.00;99152.53;1658196;85;20501;-67
2022/10/25 07:37:11;;;;;;;;;;;;;;;13.57;100.00;99148.31;1688146;83;20080;-66
2022/10/25 07:39:37;;;;;;;;;;;;;;;13.66;100.00;99146.36;1689780;83;20182;-66
2022/10/25 07:42:03;;;;;;;;;;;;;;;13.68;100.00;99141.49;1680099;84;20593;-65
2022/10/25 07:44:30;;;;;;;;;;;;;;;13.70;100.00;99135.20;1683914;84;21519;-66
2022/10/25 07:46:56;;;;;;;;;;;;;;;13.71;100.00;99141.28;1685982;84;20190;-65
2022/10/25 07:49:22;;;;;;;;;;;;;;;13.72;100.00;99137.70;1688829;82;20231;-65
2022/10/25 07:51:49;;;;;;;;;;;;;;;13.78;100.00;99138.58;1682581;84;20173;-66
2022/10/25 07:54:15;;;;;;;;;;;;;;;13.81;100.00;99139.70;1678898;84;20434;-66
2022/10/25 07:56:41;;;;;;;;;;;;;;;13.96;100.00;99140.41;1663979;85;21181;-65
2022/10/25 07:59:08;;;;;;;;;;;;;;;14.02;100.00;99136.86;1681325;84;20115;-65
2022/10/25 08:01:35;;;;;;;;;;;;;;;14.08;100.00;99131.65;1688600;84;20150;-65
2022/10/25 08:04:01;;;;;;;;;;;;;;;14.16;100.00;99137.67;1683868;84;20472;-65
2022/10/25 08:06:28;;;;;;;;;;;;;;;14.24;100.00;99143.22;1681876;84;20182;-65
2022/10/25 08:08:54;;;;;;;;;;;;;;;14.25;100.00;99140.95;1692665;84;21112;-65
2022/10/25 08:11:21;;;;;;;;;;;;;;;14.24;100.00;99136.66;1689395;83;20119;-65
2022/10/25 08:13:49;;;;;;;;;;;;;;;14.30;100.00;99130.95;1683278;84;20147;-65
2022/10/25 08:16:15;;;;;;;;;;;;;;;14.39;100.00;99134.22;1685399;84;20143;-66
2022/10/25 08:18:42;;;;;;;;;;;;;;;14.36;100.00;99131.82;1679159;84;20161;-66
2022/10/25 08:21:09;;;;;;;;;;;;;;;14.39;100.00;99131.59;1683437;84;22357;-67
2022/10/25 08:23:35;;;;;;;;;;;;;;;14.35;100.00;99131.47;1691286;83;20151;-66
2022/10/25 08:26:02;;;;;;;;;;;;;;;14.29;100.00;99135.86;1685280;84;20107;-67
2022/10/25 08:28:30;;;;;;;;;;;;;;;14.17;100.00;99135.41;1651462;86;20120;-67
2022/10/25 08:30:56;;;;;;;;;;;;;;;14.05;100.00;99139.27;1690489;83;20266;-67
2022/10/25 08:33:23;;;;;;;;;;;;;;;14.12;100.00;99142.80;1691725;83;21205;-66
2022/10/25 08:35:49;;;;;;;;;;;;;;;14.22;100.00;99135.92;1689802;83;20155;-66
2022/10/25 08:38:16;;;;;;;;;;;;;;;14.33;100.00;99135.98;1680318;84;20150;-66
2022/10/25 08:40:49;;;;;;;;;;;;;;;14.43;100.00;99144.89;1691311;83;20079;-67
2022/10/25 08:43:42;;;;;;;;;;;;;;;14.52;100.00;99146.87;1691117;83;20115;-67
2022/10/25 08:46:15;;;;;;;;;;;;;;;14.62;100.00;99143.56;1679872;84;21968;-67
2022/10/25 08:48:44;;;;;;;;;;;;;;;14.67;100.00;99133.08;1661030;84;20196;-66
2022/10/25 08:51:36;;;;;;;;;;;;;;;14.65;100.00;99143.38;1690804;83;20187;-67
2022/10/25 08:54:16;;;;;;;;;;;;;;;14.69;100.00;99140.86;1662938;84;20466;-66
2022/10/25 08:56:42;;;;;;;;;;;;;;;14.66;100.00;99146.34;1646849;84;20451;-67
2022/10/25 08:59:09;;;;;;;;;;;;;;;14.69;100.00;99144.81;1648727;86;21046;-67
2022/10/25 09:01:39;;;;;;;;;;;;;;;14.80;100.00;99143.55;1649108;86;20181;-67
2022/10/25 09:04:05;;;;;;;;;;;;;;;14.98;100.00;99138.24;1695580;83;20081;-67
2022/10/25 09:06:38;;;;;;;;;;;;;;;15.12;100.00;99142.92;1695138;83;20721;-67
2022/10/25 09:09:17;;;;;;;;;;;;;;;15.21;100.00;99144.88;1695143;83;20125;-67
2022/10/25 09:14:45;;;;;;;;;;;;;;;15.55;100.00;99139.67;1821591;77;20205;-66
2022/10/25 09:17:21;;;;;;;;;;;;;;;15.62;100.00;99146.13;1820201;78;20089;-67
2022/10/25 09:22:11;;;;;;;;;;;;;;;15.77;100.00;99154.19;1793905;78;20704;-66
2022/10/25 09:24:50;;;;;;;;;;;;;;;15.82;100.00;99158.62;1765252;80;20082;-66
2022/10/25 09:27:23;;;;;;;;;;;;;;;15.77;100.00;99155.52;1767964;80;21817;-68
2022/10/25 09:29:59;;;;;;;;;;;;;;;15.86;100.00;99158.73;1767737;80;20486;-67
2022/10/25 09:32:35;;;;;;;;;;;;;;;15.98;100.00;99162.20;1765982;80;20139;-67
2022/10/25 09:35:03;;;;;;;;;;;;;;;15.99;100.00;99155.13;1772866;78;20087;-66
2022/10/25 09:37:40;;;;;;;;;;;;;;;16.05;100.00;99162.57;1765030;79;20533;-65
2022/10/25 09:40:14;;;;;;;;;;;;;;;16.05;100.00;99165.20;1765048;79;21126;-66
2022/10/25 09:42:50;;;;;;;;;;;;;;;16.05;100.00;99167.84;1767704;80;20329;-68
2022/10/25 09:45:32;;;;;;;;;;;;;;;16.01;100.00;99171.65;1763064;80;20131;-69
2022/10/25 09:48:04;;;;;;;;;;;;;;;15.91;99.40;99168.05;1766534;80;20497;-70
2022/10/25 09:50:44;;;;;;;;;;;;;;;15.87;100.00;99178.83;1770682;80;20125;-69
2022/10/25 09:53:12;;;;;;;;;;;;;;;15.92;99.35;99181.11;1767431;80;21255;-68
2022/10/25 09:55:53;;;;;;;;;;;;;;;15.85;99.27;99186.03;1765356;80;20349;-69
2022/10/25 09:58:27;;;;;;;;;;;;;;;15.83;99.88;99190.56;1689379;83;20637;-68
2022/10/25 10:00:56;;;;;;;;;;;;;;;15.93;99.74;99182.77;1686174;83;20202;-68
2022/10/25 10:03:28;;;;;;;;;;;;;;;15.96;99.51;99186.97;1689346;83;20433;-69
2022/10/25 10:05:57;;;;;;;;;;;;;;;15.80;100.00;99189.48;1687990;83;21175;-69
2022/10/25 10:08:24;;;;;;;;;;;;;;;15.85;99.74;99191.30;1689885;83;20119;-68
2022/10/25 10:10:51;;;;;;;;;;;;;;;15.78;99.59;99184.81;1686889;83;20207;-68
2022/10/25 10:13:27;;;;;;;;;;;;;;;15.75;100.00;99185.05;1689903;83;20114;-68
2022/10/25 10:16:00;;;;;;;;;;;;;;;16.04;100.00;99189.84;1691283;83;20217;-68
2022/10/25 10:18:33;;;;;;;;;;;;;;;16.26;100.00;99192.45;1688701;83;21101;-67
2022/10/25 10:21:13;;;;;;;;;;;;;;;16.14;99.48;99189.48;1659739;85;20120;-67
2022/10/25 10:23:51;;;;;;;;;;;;;;;16.00;99.34;99195.00;1629174;86;20251;-67
2022/10/25 10:26:33;;;;;;;;;;;;;;;16.01;99.61;99190.08;1656161;84;20121;-67
2022/10/25 10:29:02;;;;;;;;;;;;;;;16.04;98.77;99195.11;1641879;85;20611;-67
2022/10/25 10:31:40;;;;;;;;;;;;;;;15.84;97.80;99192.23;1644733;86;21107;-67
2022/10/25 10:34:22;;;;;;;;;;;;;;;15.86;97.74;99197.39;1652718;82;20361;-67
2022/10/25 10:37:01;;;;;;;;;;;;;;;15.95;98.07;99197.15;1717472;81;20255;-68
2022/10/25 10:39:28;;;;;;;;;;;;;;;16.07;98.00;99194.38;1713556;81;20197;-66
2022/10/25 10:42:02;;;;;;;;;;;;;;;16.05;97.98;99198.12;1715727;82;20195;-65
2022/10/25 10:44:33;;;;;;;;;;;;;;;15.96;97.64;99194.86;1715826;82;21168;-66
2022/10/25 10:47:01;;;;;;;;;;;;;;;15.97;97.50;99204.45;1714755;82;21186;-66
2022/10/25 10:49:34;;;;;;;;;;;;;;;15.91;96.98;99202.28;1719974;82;20248;-66
2022/10/25 10:52:01;;;;;;;;;;;;;;;15.84;96.92;99200.61;1717986;82;20104;-66
2022/10/25 10:54:30;;;;;;;;;;;;;;;15.61;96.99;99203.66;1720813;82;20143;-66
2022/10/25 10:57:02;;;;;;;;;;;;;;;15.59;97.23;99206.88;1721059;82;20989;-67
2022/10/25 10:59:38;;;;;;;;;;;;;;;15.52;97.92;99204.38;1717855;82;20142;-66
2022/10/25 11:02:11;;;;;;;;;;;;;;;15.56;97.81;99203.17;1719439;82;20492;-66
2022/10/25 11:04:52;;;;;;;;;;;;;;;15.59;97.65;99208.20;1705844;82;20143;-67
2022/10/25 11:07:31;;;;;;;;;;;;;;;15.68;97.77;99210.16;1719059;82;20104;-67
2022/10/25 11:10:16;;;;;;;;;;;;;;;15.78;97.67;99213.77;1715813;82;21172;-67
2022/10/25 11:12:43;;;;;;;;;;;;;;;15.94;97.21;99215.23;1713109;82;20175;-66
2022/10/25 11:15:13;;;;;;;;;;;;;;;16.00;96.62;99212.12;1717065;82;20531;-67
2022/10/25 11:17:51;;;;;;;;;;;;;;;16.02;96.49;99210.18;1718529;82;20134;-66
2022/10/25 11:20:33;;;;;;;;;;;;;;;15.94;95.92;99217.86;1723662;82;20270;-65
2022/10/25 11:23:24;;;;;;;;;;;;;;;15.90;95.63;99211.98;1716421;82;21172;-69
2022/10/25 11:25:55;;;;;;;;;;;;;;;15.74;95.59;99213.66;1720555;82;20673;-68
2022/10/25 11:28:52;;;;;;;;;;;;;;;15.66;95.53;99227.84;1715502;82;20109;-66
2022/10/25 11:31:25;;;;;;;;;;;;;;;15.64;95.54;99229.27;1717110;82;20150;-67
2022/10/25 11:33:57;;;;;;;;;;;;;;;15.55;94.61;99229.14;1708990;82;20346;-67
2022/10/25 11:36:36;;;;;;;;;;;;;;;15.35;94.75;99226.21;1714783;82;21256;-67
2022/10/25 11:39:17;;;;;;;;;;;;;;;15.41;95.11;99227.06;1712817;82;20149;-67
2022/10/25 11:41:49;;;;;;;;;;;;;;;15.38;95.10;99224.66;1716547;82;20157;-66
2022/10/25 11:44:25;;;;;;;;;;;;;;;15.32;94.64;99225.13;1713479;82;20163;-66
2022/10/25 11:46:57;;;;;;;;;;;;;;;15.22;94.48;99234.64;1716232;82;20189;-67
2022/10/25 11:49:39;;;;;;;;;;;;;;;15.04;94.45;99232.91;1717323;82;21032;-67
2022/10/25 11:52:32;;;;;;;;;;;;;;;15.20;94.25;99243.12;1717314;82;20119;-65
2022/10/25 11:55:12;;;;;;;;;;;;;;;15.11;94.40;99246.43;1714873;82;20187;-67
2022/10/25 11:57:51;;;;;;;;;;;;;;;15.06;95.34;99247.24;1716771;82;20230;-66
2022/10/25 12:00:23;;;;;;;;;;;;;;;15.20;95.24;99251.00;1719246;82;20148;-67
2022/10/25 12:03:11;;;;;;;;;;;;;;;15.38;95.05;99244.39;1713251;82;21507;-67
2022/10/25 12:06:05;;;;;;;;;;;;;;;15.55;94.26;99251.50;1715506;82;20122;-68
2022/10/25 12:08:52;;;;;;;;;;;;;;;15.61;94.18;99255.81;1709125;82;20419;-68
2022/10/25 12:11:22;;;;;;;;;;;;;;;15.67;93.93;99254.52;1720282;82;21492;-66
2022/10/25 12:13:51;;;;;;;;;;;;;;;15.69;93.77;99253.13;1710409;82;20240;-67
2022/10/25 12:16:19;;;;;;;;;;;;;;;15.67;93.03;99258.45;1714397;82;21197;-67
2022/10/25 12:18:52;;;;;;;;;;;;;;;15.53;93.21;99253.41;1714128;82;20090;-67
2022/10/25 12:21:21;;;;;;;;;;;;;;;15.55;93.28;99254.13;1686743;83;20190;-67
2022/10/25 12:23:50;;;;;;;;;;;;;;;15.54;93.31;99257.70;1699561;82;20750;-66
2022/10/25 12:26:20;;;;;;;;;;;;;;;15.60;92.78;99262.49;1693524;83;20154;-66
2022/10/25 12:28:48;;;;;;;;;;;;;;;15.64;92.29;99263.95;1695790;82;21224;-66
2022/10/25 12:31:26;;;;;;;;;;;;;;;15.31;92.70;99265.52;1692041;83;20143;-66
2022/10/25 12:33:56;;;;;;;;;;;;;;;15.30;90.94;99271.73;1693806;83;20908;-66
2022/10/25 12:36:31;;;;;;;;;;;;;;;15.18;91.89;99268.23;1688446;83;20170;-66
2022/10/25 12:39:00;;;;;;;;;;;;;;;15.14;91.88;99273.81;1689495;83;20122;-66
2022/10/25 12:41:29;;;;;;;;;;;;;;;15.17;92.68;99281.47;1690129;83;21468;-66
2022/10/25 12:44:05;;;;;;;;;;;;;;;15.39;92.08;99273.68;1684262;83;20092;-66
2022/10/25 12:46:35;;;;;;;;;;;;;;;15.53;91.71;99266.56;1684049;83;20102;-66
2022/10/25 12:49:24;;;;;;;;;;;;;;;15.72;91.67;99266.88;1693022;83;20140;-66
2022/10/25 12:52:12;;;;;;;;;;;;;;;15.68;91.64;99273.31;1691204;82;20215;-65
2022/10/25 12:54:51;;;;;;;;;;;;;;;15.65;91.75;99269.56;1692618;83;21124;-66
2022/10/25 12:57:27;;;;;;;;;;;;;;;15.70;92.32;99270.09;1691886;83;20102;-67
2022/10/25 13:00:12;;;;;;;;;;;;;;;15.84;92.56;99269.89;1689767;83;20464;-65
2022/10/25 13:02:48;;;;;;;;;;;;;;;15.91;92.12;99283.44;1689666;82;20152;-66